Airfield :
LOGIN :

Register | Disclaimer

   EN    FR    IT 

 










Legend :    VFR   Marginal VFR   IFR   Intensive IFR   Very Intensive IFR
Visi :
Ceiling :
>= 8 km
>= 3000ft
5 to 8 km
1000 to 3000 ft
1500m to 5 km
500 to 1000 ft
800 to 1500m
200 to 500 ft
< 800m
< 200 ft
Symbols :   Thunderstorms  Fog  Heavy snow  Heavy precipitations  Wind > 20 kt
SIGMETs :     Misc.  Thunderstorms  Icing  Turbulence  Mountain Waves  Volcanic Ashes






- Airport Elevation : 464 ft
- IATA code : EVX


LFOE - Evreux

CURRENT METAR :
  • 220100Z AUTO VRB03KT 9999 OVC009 15/14 Q1010 NOSIG

EXPIRED METARs :
  • 220030Z AUTO VRB03KT 9999 BKN011 BKN082 OVC100 15/14 Q1011 BECMG BKN008
  • 220000Z AUTO 29003KT 9999 SCT009 BKN110 BKN250 14/14 Q1010 TEMPO VRB15G25KT 4000 -SHRA BECMG BKN008
  • 212330Z AUTO VRB04KT 9999 FEW009 BKN100 14/13 Q1010 TEMPO VRB15G25KT 4000 -SHRA BECMG BKN008
  • 212300Z AUTO VRB03KT 9999 ///TCU 15/14 Q1010 TEMPO VRB15G25KT BECMG 4000 -SHRA BKN008
  • 212230Z AUTO 05005KT 9999 BKN004 BKN070 OVC100 15/15 Q1010 TEMPO VRB15G25KT BECMG 4000 -SHRA BKN008

TAF TAF LFOE
Valid from the 21 at 21:00 until the 22 at 21:00 UTC


212000Z 2121/2221 27008KT 4000 -SHRA BKN030CB
PROB40
TEMPO 2121/2201 VRB15G25KT TSRA
BECMG 2122/2123 02005KT BKN008
BECMG 2201/2203 7000 NSW
TEMPO 2204/2210 BKN003
TEMPO 2204/2216 VRB15G25KT 4000 SHRA BKN030CB
BECMG 2212/2215 BKN015



MET'MAP, your aeronautical weather chart ! - Copyright ORBIFLY December 2007 - Disclaimer

ORBIFLY MET'MAP TEAM :

Programming & Development : Alexandra Zaïnal
Concept & original design : Baudouin d'Aumeries
Assistance for programming : Marc-Olivier Méhu
Technical & hardware support : Manuel Goepfert

Contact : metmap@orbifly.com




SOURCES & CREDITS :

   NOAA